createdAt,value
2016-07-19T06:59:05.799Z,3.28
2016-07-19T06:59:14.564Z,3.58
2016-07-19T06:59:23.308Z,2.97
2016-07-19T06:59:32.006Z,3.71
2016-07-19T06:59:40.820Z,5.42
2016-07-19T06:59:49.570Z,3.96
2016-07-19T06:59:58.352Z,2.86
2016-07-19T07:00:07.079Z,2.42
2016-07-19T07:00:15.802Z,2.94
2016-07-19T07:00:24.552Z,2.53
2016-07-19T07:00:33.920Z,3.03
2016-07-19T07:00:42.669Z,3.61
2016-07-19T07:00:51.453Z,3.26
2016-07-19T07:01:00.152Z,2.42
2016-07-19T07:01:08.893Z,1.95
2016-07-19T07:01:17.626Z,1.65
2016-07-19T07:01:26.411Z,1.65
2016-07-19T07:01:35.155Z,1.67
2016-07-19T07:01:43.887Z,1.73
2016-07-19T07:01:52.667Z,1.9
2016-07-19T07:02:01.415Z,2.36
2016-07-19T07:02:10.836Z,3.35
2016-07-19T07:02:19.618Z,2.31
2016-07-19T07:02:28.325Z,2.21
2016-07-19T07:02:37.109Z,3.41
2016-07-19T07:02:45.850Z,1.75
2016-07-19T07:02:54.589Z,1.42
2016-07-19T07:03:04.169Z,1.59
2016-07-19T07:03:12.916Z,1.59
2016-07-19T07:03:21.688Z,2.54
2016-07-19T07:03:31.136Z,1.97
2016-07-19T07:03:39.886Z,3.12
2016-07-19T07:03:48.641Z,1.71
2016-07-19T07:03:57.432Z,2.38
2016-07-19T07:04:06.144Z,1.78
2016-07-19T07:04:14.886Z,2.45
2016-07-19T07:23:53.830Z,6.54
2016-07-19T07:39:44.576Z,7.22
2016-07-19T07:39:53.361Z,7.23
2016-07-19T07:40:02.116Z,7.23
2016-07-19T07:40:10.816Z,7.25
2016-07-19T07:40:19.571Z,7.23
2016-07-19T07:40:28.292Z,7.27
2016-07-19T07:40:37.104Z,7.27
2016-07-19T07:40:45.790Z,7.28
2016-07-19T07:40:54.464Z,7.29
2016-07-19T07:41:03.182Z,7.29
2016-07-19T07:41:11.984Z,7.29
2016-07-19T07:41:20.724Z,7.29
2016-07-19T07:41:29.491Z,7.3
2016-07-19T07:41:38.238Z,7.31
2016-07-19T07:41:47.653Z,7.34
2016-07-19T07:41:56.396Z,7.34
2016-07-19T07:42:05.149Z,7.34
2016-07-19T07:42:13.945Z,7.34
2016-07-19T07:42:22.711Z,7.34
2016-07-19T07:42:31.467Z,7.35
2016-07-19T07:42:40.283Z,7.37
2016-07-19T07:42:49.675Z,7.39
2016-07-19T07:42:58.450Z,7.39
2016-07-19T07:43:07.184Z,7.42
2016-07-19T07:43:15.937Z,7.4
2016-07-19T07:43:24.646Z,7.41
2016-07-19T07:43:33.380Z,7.4
2016-07-19T07:43:42.145Z,7.44
2016-07-19T07:43:50.876Z,7.43
2016-07-19T07:43:59.604Z,7.43
2016-07-19T07:44:08.314Z,7.44
2016-07-19T07:44:17.078Z,7.44
2016-07-19T07:59:36.792Z,8.15
2016-07-19T07:59:45.570Z,8.12
2016-07-19T07:59:54.289Z,8.11
2016-07-19T08:00:03.026Z,8.02
2016-07-19T08:00:11.799Z,8.11
2016-07-19T08:00:20.500Z,8.1
2016-07-19T08:00:29.280Z,8.12
2016-07-19T08:00:37.954Z,8.13
2016-07-19T08:00:46.631Z,8.13
2016-07-19T08:00:55.355Z,8.16
2016-07-19T08:01:04.142Z,8.15
2016-07-19T08:01:12.891Z,8.21
2016-07-19T08:01:21.624Z,8.12
2016-07-19T08:01:30.299Z,8.17
2016-07-19T08:01:38.994Z,8.24
2016-07-19T08:01:48.363Z,8.22
2016-07-19T08:01:57.118Z,8.2
2016-07-19T08:02:05.850Z,8.24
2016-07-19T08:02:14.638Z,8.21
2016-07-19T08:02:24.200Z,8.24
2016-07-19T08:02:32.947Z,8.24
2016-07-19T08:02:41.649Z,8.24
2016-07-19T08:02:50.392Z,8.25
2016-07-19T08:02:59.150Z,8.26
2016-07-19T08:03:07.891Z,8.23
2016-07-19T08:03:16.614Z,8.26
2016-07-19T08:03:25.346Z,8.28
2016-07-19T08:03:34.087Z,8.26
2016-07-19T08:03:42.815Z,8.26
2016-07-19T08:03:51.501Z,7.08
2016-07-19T08:04:00.207Z,5.89
2016-07-19T08:04:08.968Z,5.5
2016-07-19T08:04:17.715Z,5.6
2016-07-19T08:04:26.463Z,5.73
2016-07-19T08:04:35.222Z,6.06
2016-07-19T08:04:43.932Z,6.24
2016-07-19T08:04:52.731Z,6.47
2016-07-19T08:05:01.454Z,6.68
2016-07-19T08:05:10.209Z,6.82
2016-07-19T08:05:18.922Z,6.99
2016-07-19T08:05:27.643Z,7.09
2016-07-19T08:05:36.375Z,7.12
2016-07-19T08:05:45.146Z,7.15
2016-07-19T08:05:53.865Z,7.12
2016-07-19T08:06:02.584Z,7.07
2016-07-19T08:06:11.302Z,7.04
2016-07-19T08:06:20.027Z,6.99
2016-07-19T08:06:28.759Z,6.95
2016-07-19T08:06:37.513Z,6.95
2016-07-19T08:06:46.231Z,6.98
2016-07-19T08:06:54.962Z,6.99
2016-07-19T08:07:03.689Z,7
2016-07-19T08:07:12.467Z,7.04
2016-07-19T08:07:21.197Z,7.05
2016-07-19T08:07:29.905Z,7.07
2016-07-19T08:07:38.634Z,7.12
2016-07-19T08:07:47.314Z,7.16
2016-07-19T08:07:56.020Z,7.2
2016-07-19T08:08:04.817Z,7.25
2016-07-19T08:08:13.601Z,7.27
2016-07-19T08:08:22.405Z,7.32
2016-07-19T08:08:31.160Z,7.38
2016-07-19T08:08:39.911Z,7.42
2016-07-19T08:08:48.717Z,7.42
2016-07-19T08:08:57.418Z,7.44
2016-07-19T08:09:06.133Z,7.42
2016-07-19T08:09:14.899Z,7.42
2016-07-19T08:09:23.609Z,7.4
2016-07-19T08:09:32.325Z,7.41
2016-07-19T08:09:41.050Z,7.42
2016-07-19T08:09:49.775Z,7.4
2016-07-19T08:09:58.552Z,7.4
2016-07-19T08:10:08.019Z,7.38
2016-07-19T08:10:16.730Z,7.41
2016-07-19T08:10:25.461Z,7.42
2016-07-19T08:10:34.187Z,7.42
2016-07-19T08:10:43.007Z,7.44
2016-07-19T08:10:51.823Z,7.45
2016-07-19T08:11:00.585Z,7.49
2016-07-19T08:11:09.360Z,7.5
2016-07-19T08:11:18.150Z,7.54
2016-07-19T08:11:26.886Z,7.56
2016-07-19T08:11:35.580Z,7.65
2016-07-19T08:11:44.339Z,7.64
2016-07-19T08:11:53.061Z,7.69
2016-07-19T08:12:01.805Z,7.7
2016-07-19T08:12:10.534Z,7.74
2016-07-19T08:12:19.314Z,7.75
2016-07-19T08:12:28.045Z,7.75
2016-07-19T08:12:36.800Z,7.77
2016-07-19T08:12:45.524Z,7.77
2016-07-19T08:12:54.301Z,7.73
2016-07-19T08:13:03.057Z,7.71
2016-07-19T08:13:11.802Z,7.67
2016-07-19T08:13:20.543Z,7.52
2016-07-19T08:13:29.304Z,7.58
2016-07-19T08:13:38.043Z,7.61
2016-07-19T08:13:46.767Z,7.52
2016-07-19T08:13:55.471Z,7.58
2016-07-19T08:14:04.216Z,7.52
2016-07-19T08:14:12.941Z,7.52
2016-07-19T08:14:21.696Z,7.52
2016-07-19T08:14:30.387Z,7.47
2016-07-19T08:14:39.140Z,0.46
2016-07-19T08:14:47.897Z,7.78
2016-07-19T08:14:56.659Z,7.7
2016-07-19T08:15:05.412Z,7.78
2016-07-19T08:15:14.136Z,7.76
2016-07-19T08:15:22.869Z,7.75
2016-07-19T08:15:31.593Z,7.69
2016-07-19T08:15:40.369Z,7.64
2016-07-19T08:15:49.062Z,7.65
2016-07-19T08:15:57.824Z,7.61
2016-07-19T08:16:06.544Z,7.73
2016-07-19T08:16:15.284Z,7.95
2016-07-19T08:16:24.015Z,7.85
2016-07-19T08:16:32.800Z,8.09
2016-07-19T08:16:41.596Z,7.61
2016-07-19T08:16:50.369Z,8.23
2016-07-19T08:16:59.105Z,7.96
2016-07-19T08:17:07.821Z,8.01
2016-07-19T08:17:16.591Z,8.05
2016-07-19T08:17:25.318Z,8.1
2016-07-19T08:17:34.085Z,8.12
2016-07-19T08:17:42.807Z,8.12
2016-07-19T08:17:51.562Z,8.12
2016-07-19T08:18:00.339Z,8.11
2016-07-19T08:18:09.067Z,8.07
2016-07-19T08:18:17.785Z,8.07
2016-07-19T08:18:26.539Z,8.04
2016-07-19T08:18:35.275Z,8.12
2016-07-19T08:18:44.084Z,8
2016-07-19T08:18:52.849Z,8.49
2016-07-19T08:19:01.607Z,7.38
2016-07-19T08:19:10.408Z,7.17
2016-07-19T08:19:19.164Z,7.37
2016-07-19T08:19:27.949Z,7.43
2016-07-19T08:19:36.719Z,6.51
2016-07-19T08:19:45.453Z,7.07
2016-07-19T08:19:54.211Z,7.04
2016-07-19T08:20:02.956Z,7.03
2016-07-19T08:20:11.694Z,7.02
2016-07-19T08:20:20.445Z,7.59
2016-07-19T08:20:29.153Z,7.57
2016-07-19T08:20:37.906Z,7.52
2016-07-19T08:20:46.614Z,7.49
2016-07-19T08:20:55.377Z,7.49
2016-07-19T08:21:04.126Z,7.44
2016-07-19T08:21:12.875Z,7.44
2016-07-19T08:21:21.574Z,7.47
2016-07-19T08:21:30.331Z,7.48
2016-07-19T08:21:39.120Z,7.51
2016-07-19T08:21:47.870Z,7.77
2016-07-19T08:21:56.561Z,7.8
2016-07-19T08:22:05.258Z,7.84
2016-07-19T08:22:13.968Z,7.83
2016-07-19T08:22:23.378Z,7.71
2016-07-19T08:22:32.076Z,7.69
2016-07-19T08:22:40.799Z,7.24
2016-07-19T08:22:49.499Z,7.28
2016-07-19T08:22:58.226Z,7.32
2016-07-19T08:23:06.994Z,7.34
2016-07-19T08:23:16.429Z,7.42
2016-07-19T08:23:25.173Z,7.47
2016-07-19T08:23:33.892Z,7.59
2016-07-19T08:23:42.590Z,7.78
2016-07-19T08:23:51.333Z,7.94
2016-07-19T08:24:00.071Z,7.52
2016-07-19T08:24:08.829Z,7.51
2016-07-19T08:24:17.581Z,7.68
2016-07-19T08:24:26.307Z,7.62
2016-07-19T08:24:35.074Z,7.72
2016-07-19T08:24:43.831Z,7.89
2016-07-19T08:24:52.619Z,7.9
2016-07-19T08:25:01.395Z,7.57
2016-07-19T08:25:10.116Z,7.69
2016-07-19T08:25:18.865Z,7.97
2016-07-19T08:25:27.602Z,7.8
2016-07-19T08:25:36.321Z,7.79
2016-07-19T08:25:45.089Z,7.86
2016-07-19T08:25:53.801Z,7.73
2016-07-19T08:26:02.494Z,7.76
2016-07-19T08:26:11.185Z,7.88
2016-07-19T08:26:19.973Z,7.83
2016-07-19T08:26:28.697Z,7.79
2016-07-19T08:26:37.388Z,7.77
2016-07-19T08:26:46.077Z,7.73
2016-07-19T08:26:54.796Z,7.8
2016-07-19T08:27:03.493Z,7.76
2016-07-19T08:27:12.277Z,7.8
2016-07-19T08:27:21.031Z,7.8
2016-07-19T08:27:29.807Z,7.87
2016-07-19T08:27:38.540Z,7.85
2016-07-19T08:27:47.342Z,7.89
2016-07-19T08:27:56.054Z,7.74
2016-07-19T08:28:04.789Z,7.84
2016-07-19T08:28:13.468Z,7.76
2016-07-19T08:28:22.187Z,7.68
2016-07-19T08:28:30.907Z,5.66
2016-07-19T08:28:39.633Z,6.45
2016-07-19T08:28:48.371Z,7.97
2016-07-19T08:28:57.053Z,8
2016-07-19T08:29:06.425Z,7.42
2016-07-19T08:29:15.161Z,7.97
2016-07-19T08:29:23.919Z,7.95
2016-07-19T08:29:32.649Z,7.9
2016-07-19T08:29:41.389Z,7.38
2016-07-19T08:29:50.107Z,6.91
2016-07-19T08:29:58.829Z,7.67
2016-07-19T08:30:07.522Z,7.39
2016-07-19T08:30:16.315Z,7.55
2016-07-19T08:30:25.020Z,8
2016-07-19T08:30:33.770Z,7.79
2016-07-19T08:30:42.496Z,7.44
2016-07-19T08:30:51.203Z,7.82
2016-07-19T08:30:59.944Z,7.75
2016-07-19T08:31:08.727Z,7.73
2016-07-19T08:31:17.456Z,7.74
2016-07-19T08:31:26.174Z,7.73
2016-07-19T08:31:34.925Z,7.69
2016-07-19T08:31:43.660Z,7.72
2016-07-19T08:31:52.451Z,7.68
2016-07-19T08:32:01.204Z,7.79
2016-07-19T08:32:09.927Z,7.9
2016-07-19T08:32:18.669Z,7.35
2016-07-19T08:32:27.394Z,7.61
2016-07-19T08:32:36.151Z,7.28
2016-07-19T08:32:44.820Z,7.16
2016-07-19T08:32:53.540Z,7.18
2016-07-19T08:33:02.326Z,7.21
2016-07-19T08:33:11.062Z,7.2
2016-07-19T08:33:19.843Z,7.25
2016-07-19T08:33:28.562Z,7.26
2016-07-19T08:33:37.278Z,7.3
2016-07-19T08:33:46.008Z,7.31
2016-07-19T08:33:54.763Z,7.37
2016-07-19T08:34:03.477Z,7.4
2016-07-19T08:34:12.246Z,7.45
2016-07-19T08:34:21.065Z,7.62
2016-07-19T08:34:29.820Z,7.65
2016-07-19T08:34:38.572Z,7.67
2016-07-19T08:34:47.362Z,7.67
2016-07-19T08:34:56.143Z,7.68
2016-07-19T08:35:04.886Z,7.62
2016-07-19T08:35:13.584Z,7.55
2016-07-19T08:35:22.340Z,7.53
2016-07-19T08:35:31.013Z,7.45
2016-07-19T08:35:39.739Z,7.4
2016-07-19T08:35:48.529Z,7.37
2016-07-19T08:35:57.265Z,7.33
2016-07-19T08:36:06.022Z,7.32
2016-07-19T08:36:14.815Z,7.3
2016-07-19T08:36:23.569Z,7.34
2016-07-19T08:36:32.322Z,7.36
2016-07-19T08:36:41.091Z,7.35
2016-07-19T08:36:49.802Z,7.42
2016-07-19T08:36:58.547Z,7.43
2016-07-19T08:37:07.348Z,7.46
2016-07-19T08:37:16.063Z,7.51
2016-07-19T08:37:25.446Z,7.5
2016-07-19T08:37:34.176Z,7.53
2016-07-19T08:37:42.984Z,7.54
2016-07-19T08:37:51.713Z,7.56
2016-07-19T08:38:00.443Z,7.58
2016-07-19T08:38:09.167Z,7.59
2016-07-19T08:38:17.951Z,7.6
2016-07-19T08:38:26.644Z,7.62
2016-07-19T08:38:35.408Z,7.66
2016-07-19T08:38:44.072Z,7.66
2016-07-19T08:38:52.921Z,7.72
2016-07-19T08:39:01.686Z,7.75
2016-07-19T08:39:10.443Z,7.73
2016-07-19T08:39:19.231Z,7.82
2016-07-19T08:39:27.955Z,7.71
2016-07-19T08:39:36.650Z,7.91
2016-07-19T08:39:45.382Z,7.92
2016-07-19T08:39:54.156Z,7.88
2016-07-19T08:40:02.886Z,7.75
2016-07-19T08:40:11.602Z,7.64
2016-07-19T08:40:20.327Z,7.17
2016-07-19T08:40:29.059Z,7.29
2016-07-19T08:40:37.756Z,7.49
2016-07-19T08:40:46.508Z,7.5
2016-07-19T08:40:56.228Z,7.38
2016-07-19T08:41:04.952Z,7.23
2016-07-19T08:41:13.735Z,7.24
2016-07-19T08:41:22.468Z,7.54
2016-07-19T08:41:31.251Z,7.42
2016-07-19T08:41:40.003Z,7.29
2016-07-19T08:41:48.692Z,7.37
2016-07-19T08:41:57.446Z,7.35
2016-07-19T08:42:06.191Z,7.36
2016-07-19T08:42:14.928Z,7.38
2016-07-19T08:42:23.723Z,7.45
2016-07-19T08:42:32.502Z,7.46
2016-07-19T08:42:41.232Z,7.51
2016-07-19T08:42:49.971Z,7.6
2016-07-19T08:42:58.714Z,7.66
2016-07-19T08:43:07.439Z,7.36
2016-07-19T08:43:16.963Z,7.35
2016-07-19T08:43:25.695Z,7.41
2016-07-19T08:43:34.454Z,7.62
2016-07-19T08:43:43.229Z,7.7
2016-07-19T08:43:51.889Z,7.71
2016-07-19T08:44:00.610Z,7.77
2016-07-19T08:44:09.340Z,7.81
2016-07-19T08:44:18.063Z,7.89
2016-07-19T08:44:26.805Z,7.95
2016-07-19T08:44:35.502Z,8.02
2016-07-19T08:44:44.307Z,8.07
2016-07-19T08:44:53.083Z,8.07
2016-07-19T08:45:01.821Z,8.13
2016-07-19T08:45:10.512Z,8.23
2016-07-19T08:45:19.266Z,8.13
2016-07-19T08:45:28.054Z,8.16
2016-07-19T08:45:36.749Z,8.18
2016-07-19T08:45:45.448Z,8.18
2016-07-19T08:45:54.164Z,8.14
2016-07-19T08:46:03.600Z,8.45
2016-07-19T08:46:12.351Z,8.21
2016-07-19T08:46:21.087Z,8.21
2016-07-19T08:46:29.873Z,8.15
2016-07-19T08:46:38.610Z,8.1
2016-07-19T08:46:47.329Z,8.05
2016-07-19T08:46:56.028Z,8.03
2016-07-19T08:47:04.749Z,8.01
2016-07-19T08:47:13.445Z,7.97
2016-07-19T08:47:22.135Z,7.95
2016-07-19T08:47:30.836Z,7.95
2016-07-19T08:47:39.656Z,7.93
2016-07-19T08:47:48.433Z,7.97
2016-07-19T08:47:57.227Z,7.98
2016-07-19T08:48:05.951Z,8
2016-07-19T08:48:14.716Z,8.04
2016-07-19T08:48:23.432Z,8.1
2016-07-19T08:48:32.173Z,8.13
2016-07-19T08:48:40.948Z,8.22
2016-07-19T08:48:49.609Z,8.24
2016-07-19T08:48:59.031Z,8.27
2016-07-19T08:49:07.805Z,8.29
2016-07-19T08:49:16.499Z,8.32
2016-07-19T08:49:25.293Z,8.33
2016-07-19T08:49:34.115Z,8.32
2016-07-19T08:49:42.858Z,8.32
2016-07-19T08:49:51.558Z,8.32
2016-07-19T08:50:00.277Z,8.26
2016-07-19T08:50:09.039Z,8.22
2016-07-19T08:50:17.775Z,8.22
2016-07-19T08:50:26.489Z,8.18
2016-07-19T08:50:35.246Z,8.16
2016-07-19T08:50:43.941Z,8.15
2016-07-19T08:50:52.639Z,8.15
2016-07-19T08:51:01.411Z,8.2
2016-07-19T08:51:10.104Z,8.09
2016-07-19T08:51:18.811Z,8.18
2016-07-19T08:51:27.564Z,8.19
2016-07-19T08:51:36.315Z,8.23
2016-07-19T08:51:45.042Z,8.26
2016-07-19T08:51:53.750Z,8.28
2016-07-19T08:52:02.472Z,8.32
2016-07-19T08:52:11.258Z,8.34
2016-07-19T08:52:19.980Z,8.42
2016-07-19T08:52:28.763Z,8.45
2016-07-19T08:52:38.174Z,8.52
2016-07-19T08:52:46.929Z,8.52
2016-07-19T08:52:55.686Z,8.56
2016-07-19T08:53:04.401Z,8.62
2016-07-19T08:53:13.169Z,8.33
2016-07-19T08:53:22.005Z,8.44
2016-07-19T08:53:30.789Z,8.66
2016-07-19T08:53:39.586Z,8.4
2016-07-19T08:53:48.341Z,8.43
2016-07-19T08:53:57.050Z,8.3
2016-07-19T08:54:05.768Z,8.27
2016-07-19T08:54:14.489Z,8.28
2016-07-19T08:54:23.218Z,8.25
2016-07-19T08:54:31.954Z,8.25
2016-07-19T08:54:40.680Z,8.25
2016-07-19T08:54:49.472Z,8.3
2016-07-19T08:54:58.165Z,8.33
2016-07-19T08:55:06.937Z,8.4
2016-07-19T08:55:15.663Z,8.47
2016-07-19T08:55:24.353Z,8.56
2016-07-19T08:55:33.119Z,8.61
2016-07-19T08:55:41.822Z,8.67
2016-07-19T08:55:51.356Z,8.72
2016-07-19T08:56:00.125Z,8.78
2016-07-19T08:56:08.883Z,8.82
2016-07-19T08:56:17.594Z,8.82
2016-07-19T08:56:26.315Z,8.82
2016-07-19T08:56:35.073Z,8.81
2016-07-19T08:56:43.764Z,8.8
2016-07-19T08:56:52.534Z,8.81
2016-07-19T08:57:01.281Z,8.79
2016-07-19T08:57:10.019Z,8.85
2016-07-19T08:57:18.736Z,8.8
2016-07-19T08:57:27.469Z,8.8
2016-07-19T08:57:36.252Z,8.82
2016-07-19T08:57:45.013Z,8.83
2016-07-19T08:57:54.453Z,8.86
2016-07-19T08:58:03.231Z,8.91
2016-07-19T08:58:11.906Z,8.94
2016-07-19T08:58:20.653Z,9.01
2016-07-19T08:58:29.389Z,9.11
2016-07-19T08:58:38.176Z,9.16
2016-07-19T08:58:46.929Z,9.22
2016-07-19T08:58:55.717Z,9.27
2016-07-19T08:59:04.472Z,9.35
2016-07-19T08:59:13.232Z,9.37
2016-07-19T08:59:21.986Z,9.38
2016-07-19T08:59:30.741Z,9.34
2016-07-19T08:59:39.486Z,7.83
2016-07-19T08:59:48.824Z,7.2
2016-07-19T08:59:57.519Z,8.95
2016-07-19T09:00:06.285Z,8.86
2016-07-19T09:00:15.722Z,8.85
2016-07-19T09:00:24.415Z,8.82
2016-07-19T09:00:33.183Z,8.74
2016-07-19T09:00:41.929Z,8.72
2016-07-19T09:00:51.412Z,8.7
2016-07-19T09:01:00.109Z,8.67
2016-07-19T09:01:08.876Z,8.66
2016-07-19T09:01:17.632Z,8.62
2016-07-19T09:01:26.349Z,8.63
2016-07-19T09:01:35.084Z,8.54
2016-07-19T09:01:43.827Z,8.59
2016-07-19T09:01:52.524Z,8.55
2016-07-19T09:02:01.241Z,8.57
2016-07-19T09:02:09.985Z,8.59
2016-07-19T09:02:18.740Z,8.53
2016-07-19T09:02:27.412Z,8.55
2016-07-19T09:02:36.152Z,8.5
2016-07-19T09:02:44.874Z,8.5
2016-07-19T09:02:53.663Z,8.5
2016-07-19T09:03:02.443Z,8.51
2016-07-19T09:03:11.167Z,8.54
2016-07-19T09:03:20.545Z,8.51
2016-07-19T09:03:29.348Z,8.63
2016-07-19T09:03:38.166Z,8.59
2016-07-19T09:03:46.936Z,8.63
2016-07-19T09:03:55.667Z,8.65
2016-07-19T09:04:04.364Z,8.67
2016-07-19T09:04:13.067Z,8.71
2016-07-19T09:04:21.752Z,8.71
2016-07-19T09:04:30.483Z,8.72
2016-07-19T09:04:39.194Z,8.73
2016-07-19T09:04:47.882Z,8.77
2016-07-19T09:04:56.620Z,8.78
2016-07-19T09:05:05.308Z,8.78
2016-07-19T09:05:14.062Z,8.82
2016-07-19T09:05:22.837Z,8.84
2016-07-19T09:05:31.558Z,8.82
2016-07-19T09:05:40.263Z,8.82
2016-07-19T09:05:49.052Z,8.84
2016-07-19T09:05:57.800Z,8.84
2016-07-19T09:06:06.545Z,8.83
2016-07-19T09:06:15.321Z,8.8
2016-07-19T09:06:24.044Z,8.77
2016-07-19T09:06:32.842Z,8.72
2016-07-19T09:06:41.626Z,8.71
2016-07-19T09:06:50.330Z,8.63
2016-07-19T09:06:59.076Z,8.62
2016-07-19T09:07:07.769Z,8.55
2016-07-19T09:07:16.507Z,8.53
2016-07-19T09:07:25.919Z,8.48
2016-07-19T09:07:34.709Z,8.43
2016-07-19T09:07:43.463Z,8.41
2016-07-19T09:07:52.185Z,8.46
2016-07-19T09:08:00.952Z,8.43
2016-07-19T09:08:09.700Z,8.47
2016-07-19T09:08:18.398Z,8.72
2016-07-19T09:08:27.090Z,8.64
2016-07-19T09:08:35.795Z,8.4
2016-07-19T09:08:44.602Z,9.01
2016-07-19T09:08:53.320Z,9.34
2016-07-19T09:09:01.994Z,9.46
2016-07-19T09:09:10.696Z,9.56
2016-07-19T09:09:19.484Z,9.58
2016-07-19T09:09:28.254Z,9.57
2016-07-19T09:09:36.996Z,9.5
2016-07-19T09:09:45.733Z,9.47
2016-07-19T09:09:54.482Z,9.37
2016-07-19T09:10:03.217Z,9.22
2016-07-19T09:10:11.937Z,9.14
2016-07-19T09:10:20.696Z,8.95
2016-07-19T09:10:29.453Z,8.87
2016-07-19T09:10:38.180Z,8.78
2016-07-19T09:10:46.857Z,8.8
2016-07-19T09:10:55.646Z,8.76
2016-07-19T09:11:04.433Z,8.78
2016-07-19T09:11:13.178Z,8.88
2016-07-19T09:11:21.919Z,8.96
2016-07-19T09:11:30.665Z,9.09
2016-07-19T09:11:39.438Z,9.3
2016-07-19T09:11:48.257Z,9.03
2016-07-19T09:11:57.066Z,8.71
2016-07-19T09:12:05.761Z,9.57
2016-07-19T09:12:14.468Z,9.62
2016-07-19T09:12:23.209Z,9.28
2016-07-19T09:12:31.908Z,9.4
2016-07-19T09:12:40.585Z,9.56
2016-07-19T09:12:49.290Z,9.56
2016-07-19T09:12:58.005Z,9.38
2016-07-19T09:13:06.775Z,9.25
2016-07-19T09:13:15.523Z,9.18
2016-07-19T09:13:24.220Z,9.08
2016-07-19T09:13:32.983Z,8.96
2016-07-19T09:13:41.706Z,8.9
2016-07-19T09:13:51.112Z,8.8
2016-07-19T09:13:59.832Z,8.76
2016-07-19T09:14:08.599Z,8.71
2016-07-19T09:14:17.386Z,8.72
2016-07-19T09:14:26.152Z,8.74
2016-07-19T09:14:34.878Z,8.74
2016-07-19T09:14:43.616Z,8.76
2016-07-19T09:14:52.345Z,8.77
2016-07-19T09:15:01.132Z,8.81
2016-07-19T09:15:09.811Z,8.82
2016-07-19T09:15:18.512Z,8.85
2016-07-19T09:15:27.271Z,8.88
2016-07-19T09:15:35.987Z,8.86
2016-07-19T09:15:44.689Z,8.95
2016-07-19T09:15:53.509Z,8.94
2016-07-19T09:16:02.283Z,9.01
2016-07-19T09:16:11.040Z,9.04
2016-07-19T09:16:19.808Z,8.97
2016-07-19T09:16:28.553Z,9.08
2016-07-19T09:16:37.243Z,8.98
2016-07-19T09:16:45.945Z,8.96
2016-07-19T09:16:54.690Z,9
2016-07-19T09:17:03.381Z,9.06
2016-07-19T09:17:12.109Z,9.04
2016-07-19T09:17:20.839Z,9.1
2016-07-19T09:17:29.628Z,9.12
2016-07-19T09:17:38.387Z,9.16
2016-07-19T09:17:47.410Z,9.2
2016-07-19T09:17:56.154Z,9.67
2016-07-19T09:18:04.884Z,9.31
2016-07-19T09:18:13.625Z,9.44
2016-07-19T09:18:22.349Z,9.27
2016-07-19T09:18:31.122Z,9.49
2016-07-19T09:18:39.875Z,9.73
2016-07-19T09:18:48.572Z,9.76
2016-07-19T09:18:57.367Z,8.79
2016-07-19T09:19:06.089Z,9.03
2016-07-19T09:19:14.865Z,9.37
2016-07-19T09:19:23.558Z,9.62
2016-07-19T09:19:32.312Z,9.09
2016-07-19T09:19:41.007Z,9.04
2016-07-19T09:19:49.745Z,9.07
2016-07-19T09:19:58.474Z,8.95
2016-07-19T09:20:07.170Z,6.02
2016-07-19T09:20:15.838Z,8.64
2016-07-19T09:20:24.569Z,9.25
2016-07-19T09:20:33.272Z,9.21
2016-07-19T09:20:41.984Z,9.22
2016-07-19T09:20:50.745Z,9.19
2016-07-19T09:20:59.514Z,9.09
2016-07-19T09:21:08.229Z,9.63
2016-07-19T09:21:17.003Z,9.39
2016-07-19T09:21:25.721Z,9.33
2016-07-19T09:21:34.447Z,9.34
2016-07-19T09:21:43.153Z,9.32
2016-07-19T09:21:51.937Z,9.32
2016-07-19T09:22:01.588Z,9.38
2016-07-19T09:22:10.305Z,9.39
2016-07-19T09:22:19.098Z,9.41
2016-07-19T09:22:27.792Z,9.6
2016-07-19T09:22:36.561Z,9.55
2016-07-19T09:22:45.362Z,9.26
2016-07-19T09:22:54.172Z,9.51
2016-07-19T09:23:02.907Z,9.19
2016-07-19T09:23:11.721Z,9.61
2016-07-19T09:23:20.475Z,9.52
2016-07-19T09:23:29.234Z,9.39
2016-07-19T09:23:37.983Z,9.44
2016-07-19T09:23:46.784Z,9.33
2016-07-19T09:23:55.548Z,9.3
2016-07-19T09:24:04.306Z,9.15
2016-07-19T09:24:13.095Z,9.42
2016-07-19T09:24:21.822Z,9.4
2016-07-19T09:24:30.607Z,9.28
2016-07-19T09:24:39.301Z,9.23
2016-07-19T09:24:48.022Z,8.97
2016-07-19T09:24:56.712Z,9.37
2016-07-19T09:25:05.434Z,7.55
2016-07-19T09:25:14.201Z,9.14
2016-07-19T09:25:22.935Z,9.11
2016-07-19T09:25:31.661Z,9.15
2016-07-19T09:25:40.423Z,9.09
2016-07-19T09:25:49.180Z,9.06
2016-07-19T09:25:57.897Z,8.93
2016-07-19T09:26:06.657Z,8.88
2016-07-19T09:26:15.443Z,8.84
2016-07-19T09:26:24.145Z,8.78
2016-07-19T09:26:32.870Z,8.73
2016-07-19T09:26:41.595Z,8.7
2016-07-19T09:26:50.319Z,8.66
2016-07-19T09:26:59.119Z,8.69
2016-07-19T09:27:07.879Z,8.63
2016-07-19T09:27:16.552Z,8.61
2016-07-19T09:27:25.350Z,8.63
2016-07-19T09:27:34.032Z,8.64
2016-07-19T09:27:42.826Z,9.26
2016-07-19T09:27:51.549Z,8.69
2016-07-19T09:28:00.298Z,8.74
2016-07-19T09:28:08.964Z,8.73
2016-07-19T09:28:17.701Z,8.72
2016-07-19T09:28:26.457Z,8.78
2016-07-19T09:28:35.250Z,8.79
2016-07-19T09:28:44.008Z,8.85
2016-07-19T09:28:52.768Z,8.89
2016-07-19T09:29:01.551Z,8.86
2016-07-19T09:29:10.289Z,8.86
2016-07-19T09:29:19.066Z,8.92
2016-07-19T09:29:27.800Z,8.89
2016-07-19T09:29:36.588Z,8.94
2016-07-19T09:29:45.368Z,8.81
2016-07-19T09:29:54.064Z,8.96
2016-07-19T09:30:02.832Z,8.97
2016-07-19T09:30:11.552Z,8.97
2016-07-19T09:30:20.289Z,9.11
2016-07-19T09:30:29.037Z,9.14
2016-07-19T09:30:37.775Z,9.19
2016-07-19T09:30:46.550Z,9.21
2016-07-19T09:30:55.251Z,9.3
2016-07-19T09:31:03.963Z,9.35
2016-07-19T09:31:12.663Z,9.4
2016-07-19T09:31:21.460Z,9.44
2016-07-19T09:31:30.217Z,9.55
2016-07-19T09:31:38.974Z,9.54
2016-07-19T09:31:47.768Z,9.55
2016-07-19T09:31:56.525Z,9.59
2016-07-19T09:32:05.317Z,9.69
2016-07-19T09:32:14.068Z,9.68
2016-07-19T09:32:22.758Z,9.65
2016-07-19T09:32:31.511Z,9.66
2016-07-19T09:32:40.250Z,9.66
2016-07-19T09:32:49.008Z,9.7
2016-07-19T09:32:57.763Z,9.72
2016-07-19T09:33:06.546Z,9.81
2016-07-19T09:33:15.272Z,9.87
2016-07-19T09:33:23.968Z,9.7
2016-07-19T09:33:32.681Z,9.77
2016-07-19T09:33:41.404Z,9.87
2016-07-19T09:33:50.209Z,10.01
2016-07-19T09:33:58.947Z,10.27
2016-07-19T09:34:07.702Z,8.04
2016-07-19T09:34:16.519Z,3.85
2016-07-19T09:34:25.298Z,4.19
2016-07-19T09:34:34.005Z,5
2016-07-19T09:34:42.766Z,6.96
2016-07-19T09:34:51.516Z,5.44
2016-07-19T09:35:00.283Z,2.57
2016-07-19T09:35:09.037Z,2.37
2016-07-19T09:35:17.814Z,2.27
2016-07-19T09:35:26.556Z,2.19
2016-07-19T09:35:35.301Z,2.13
2016-07-19T09:35:44.063Z,2.12
2016-07-19T09:35:52.770Z,2.13
2016-07-19T09:36:01.468Z,2.15
2016-07-19T09:36:10.133Z,2.16
2016-07-19T09:36:19.576Z,2.13
2016-07-19T09:36:28.276Z,2.1
2016-07-19T09:36:37.023Z,2.09
2016-07-19T09:36:45.746Z,2.11
2016-07-19T09:36:54.408Z,2.07
2016-07-19T09:37:03.180Z,2
2016-07-19T09:37:11.945Z,1.96
2016-07-19T09:37:20.727Z,1.99
2016-07-19T09:37:30.146Z,2.04
2016-07-19T09:37:38.935Z,2.08
2016-07-19T09:37:47.662Z,2.2
2016-07-19T09:37:57.342Z,3.4
2016-07-19T09:38:06.202Z,8.87
2016-07-19T09:38:15.641Z,10.22
2016-07-19T09:38:24.444Z,8.76
2016-07-19T09:38:33.166Z,10.39
2016-07-19T09:38:42.093Z,10.86
2016-07-19T09:38:50.849Z,10.94
2016-07-19T09:38:59.578Z,10.8
2016-07-19T09:39:08.447Z,10.62
2016-07-19T09:39:17.153Z,10.6
2016-07-19T09:39:25.931Z,10.59
2016-07-19T09:39:34.692Z,10.57
2016-07-19T09:39:43.353Z,10.55
2016-07-19T09:39:52.085Z,10.64
2016-07-19T09:40:00.799Z,10.67
2016-07-19T09:40:09.602Z,10.73
2016-07-19T09:40:18.358Z,10.7
2016-07-19T09:40:27.119Z,10.71
2016-07-19T09:40:35.844Z,10.69
2016-07-19T09:40:44.606Z,10.62
2016-07-19T09:40:53.365Z,10.54
2016-07-19T09:41:02.091Z,10.49
2016-07-19T09:41:10.876Z,10.44
2016-07-19T09:41:19.639Z,10.36
2016-07-19T09:41:28.383Z,10.29
2016-07-19T09:41:37.182Z,10.37
2016-07-19T09:41:45.947Z,10.38
2016-07-19T09:41:54.692Z,10.39
2016-07-19T09:42:03.430Z,10.36
2016-07-19T09:42:12.154Z,10.43
2016-07-19T09:42:20.868Z,10.46
2016-07-19T09:42:29.633Z,10.53
2016-07-19T09:42:38.365Z,10.61
2016-07-19T09:42:47.075Z,10.84
2016-07-19T09:42:55.779Z,10.26
2016-07-19T09:43:04.594Z,5.24
2016-07-19T09:43:13.301Z,5.04
2016-07-19T09:43:22.022Z,9.11
2016-07-19T09:43:31.435Z,5.85
2016-07-19T09:43:40.200Z,5.44
2016-07-19T09:43:48.904Z,5.24
2016-07-19T09:43:57.665Z,3.98
2016-07-19T09:44:06.407Z,4.38
2016-07-19T09:44:15.118Z,4.23
2016-07-19T09:44:23.904Z,4.92
2016-07-19T09:44:32.639Z,4.58
2016-07-19T09:44:41.306Z,3.97
2016-07-19T09:44:50.116Z,6.16
2016-07-19T09:44:58.874Z,5.09
2016-07-19T09:45:07.644Z,6.31
2016-07-19T09:45:16.436Z,7.72
2016-07-19T09:45:25.239Z,4.58
2016-07-19T09:45:33.992Z,3.05
2016-07-19T09:45:42.716Z,2.86
2016-07-19T09:45:51.462Z,2.73
2016-07-19T09:46:00.223Z,2.66
2016-07-19T09:46:09.614Z,2.68
2016-07-19T09:46:18.371Z,2.98
2016-07-19T09:46:27.125Z,2.95